createdAt,value
2023-04-30T00:01:48.909Z,9.92
2023-04-30T00:04:16.618Z,9.92
2023-04-30T00:06:45.734Z,9.86
2023-04-30T00:09:13.593Z,9.88
2023-04-30T00:11:41.236Z,9.90
2023-04-30T00:14:10.529Z,9.92
2023-04-30T00:16:38.196Z,9.92
2023-04-30T00:19:06.337Z,9.89
2023-04-30T00:21:34.007Z,9.86
2023-04-30T00:24:03.764Z,9.83
2023-04-30T00:26:31.338Z,9.84
2023-04-30T00:28:59.002Z,9.78
2023-04-30T00:31:26.718Z,9.76
2023-04-30T00:33:54.325Z,9.77
2023-04-30T00:36:21.900Z,9.77
2023-04-30T00:38:49.537Z,9.82
2023-04-30T00:41:19.577Z,9.78
2023-04-30T00:43:47.195Z,9.75
2023-04-30T00:46:14.936Z,9.77
2023-04-30T00:48:42.660Z,9.73
2023-04-30T00:51:10.635Z,9.71
2023-04-30T00:53:39.175Z,9.65
2023-04-30T00:56:09.389Z,9.64
2023-04-30T00:58:39.484Z,9.63
2023-04-30T01:01:07.219Z,9.62
2023-04-30T01:03:36.730Z,9.62
2023-04-30T01:06:04.817Z,9.65
2023-04-30T01:08:33.246Z,9.58
2023-04-30T01:11:12.790Z,9.57
2023-04-30T01:13:51.284Z,9.59
2023-04-30T01:16:24.861Z,9.54
2023-04-30T01:18:57.920Z,9.53
2023-04-30T01:21:27.915Z,9.43
2023-04-30T01:24:25.630Z,9.42
2023-04-30T01:27:07.996Z,9.36
2023-04-30T01:29:37.901Z,9.39
2023-04-30T01:32:05.621Z,9.38
2023-04-30T01:34:33.505Z,9.34
2023-04-30T01:37:12.731Z,9.32
2023-04-30T01:39:57.694Z,9.23
2023-04-30T01:42:33.378Z,9.24
2023-04-30T01:45:27.754Z,9.24
2023-04-30T01:48:04.169Z,9.24
2023-04-30T01:50:39.587Z,9.14
2023-04-30T01:53:11.566Z,9.20
2023-04-30T01:55:44.984Z,9.17
2023-04-30T01:58:15.908Z,9.14
2023-04-30T02:00:44.947Z,9.20
2023-04-30T02:03:12.704Z,9.18
2023-04-30T02:05:40.433Z,9.16
2023-04-30T02:08:08.402Z,9.10
2023-04-30T02:10:36.108Z,9.07
2023-04-30T02:13:03.708Z,9.06
2023-04-30T02:15:31.417Z,9.06
2023-04-30T02:18:00.733Z,9.07
2023-04-30T02:20:28.398Z,9.06
2023-04-30T02:22:56.091Z,9.03
2023-04-30T02:25:23.933Z,8.99
2023-04-30T02:27:51.671Z,8.95
2023-04-30T02:30:20.884Z,8.93
2023-04-30T02:32:48.938Z,8.96
2023-04-30T02:35:18.006Z,8.94
2023-04-30T02:37:45.742Z,8.96
2023-04-30T02:40:13.824Z,9.02
2023-04-30T02:42:41.497Z,9.02
2023-04-30T02:45:09.931Z,9.01
2023-04-30T02:47:37.651Z,9.00
2023-04-30T02:50:06.340Z,8.97
2023-04-30T02:52:35.267Z,8.94
2023-04-30T02:55:02.937Z,8.94
2023-04-30T02:57:33.202Z,8.90
2023-04-30T03:00:00.776Z,8.85
2023-04-30T03:02:28.510Z,8.84
2023-04-30T03:04:56.264Z,8.88
2023-04-30T03:07:23.949Z,8.86
2023-04-30T03:09:53.398Z,8.82
2023-04-30T03:12:21.208Z,8.81
2023-04-30T03:14:48.771Z,8.78
2023-04-30T03:17:16.605Z,8.72
2023-04-30T03:19:44.297Z,8.76
2023-04-30T03:22:12.204Z,8.74
2023-04-30T03:24:39.825Z,8.72
2023-04-30T03:27:08.742Z,8.73
2023-04-30T03:29:36.355Z,8.75
2023-04-30T03:32:04.310Z,8.72
2023-04-30T03:34:32.545Z,8.77
2023-04-30T03:37:01.715Z,8.75
2023-04-30T03:39:29.313Z,8.71
2023-04-30T03:41:56.973Z,8.69
2023-04-30T03:44:25.948Z,8.67
2023-04-30T03:46:53.546Z,8.71
2023-04-30T03:49:21.243Z,8.73
2023-04-30T03:51:48.853Z,8.70
2023-04-30T03:54:16.653Z,8.71
2023-04-30T03:56:44.341Z,8.66
2023-04-30T03:59:12.390Z,8.62
2023-04-30T04:01:41.542Z,8.60
2023-04-30T04:04:09.977Z,8.56
2023-04-30T04:06:37.700Z,8.56
2023-04-30T04:09:06.185Z,8.56
2023-04-30T04:11:34.197Z,8.48
2023-04-30T04:14:03.212Z,8.44
2023-04-30T04:16:30.884Z,8.32
2023-04-30T04:19:00.100Z,8.23
2023-04-30T04:21:28.818Z,8.25
2023-04-30T04:23:56.645Z,8.24
2023-04-30T04:26:25.488Z,8.25
2023-04-30T04:28:53.178Z,8.21
2023-04-30T04:31:22.571Z,8.22
2023-04-30T04:33:50.281Z,8.32
2023-04-30T04:36:19.228Z,8.34
2023-04-30T04:38:47.044Z,8.45
2023-04-30T04:41:14.636Z,8.49
2023-04-30T04:43:42.400Z,8.52
2023-04-30T04:46:12.281Z,8.55
2023-04-30T04:48:41.358Z,8.53
2023-04-30T04:51:09.029Z,8.54
2023-04-30T04:53:37.902Z,8.54
2023-04-30T04:56:07.094Z,8.54
2023-04-30T04:58:34.776Z,8.58
2023-04-30T05:01:02.942Z,8.58
2023-04-30T05:03:32.321Z,8.57
2023-04-30T05:06:00.475Z,8.57
2023-04-30T05:08:28.059Z,8.59
2023-04-30T05:10:57.016Z,8.65
2023-04-30T05:13:24.680Z,8.59
2023-04-30T05:15:53.779Z,8.58
2023-04-30T05:18:21.685Z,8.58
2023-04-30T05:20:49.610Z,8.57
2023-04-30T05:23:17.230Z,8.53
2023-04-30T05:25:45.490Z,8.53
2023-04-30T05:28:14.469Z,8.52
2023-04-30T05:30:42.037Z,8.49
2023-04-30T05:33:09.751Z,8.54
2023-04-30T05:35:37.413Z,8.54
2023-04-30T05:38:07.359Z,8.55
2023-04-30T05:40:34.933Z,8.58
2023-04-30T05:43:02.511Z,8.65
2023-04-30T05:45:31.467Z,8.69
2023-04-30T05:47:59.259Z,8.66
2023-04-30T05:50:27.079Z,8.70
2023-04-30T05:52:54.728Z,8.69
2023-04-30T05:55:22.362Z,8.62
2023-04-30T05:57:49.991Z,8.64
2023-04-30T06:00:18.214Z,8.61
2023-04-30T06:02:47.334Z,8.54
2023-04-30T06:05:16.301Z,8.50
2023-04-30T06:07:44.084Z,8.52
2023-04-30T06:10:12.561Z,8.53
2023-04-30T06:12:40.430Z,8.52
2023-04-30T06:15:08.825Z,8.57
2023-04-30T06:17:36.553Z,8.70
2023-04-30T06:20:07.160Z,8.77
2023-04-30T06:22:35.080Z,8.88
2023-04-30T06:25:03.585Z,9.00
2023-04-30T06:27:32.491Z,8.89
2023-04-30T06:30:01.085Z,8.88
2023-04-30T06:32:28.809Z,8.99
2023-04-30T06:34:56.621Z,8.97
2023-04-30T06:37:25.630Z,8.96
2023-04-30T06:39:53.719Z,9.09
2023-04-30T06:42:21.985Z,9.11
2023-04-30T06:44:49.682Z,9.27
2023-04-30T06:47:17.409Z,9.36
2023-04-30T06:49:44.998Z,9.31
2023-04-30T06:52:12.622Z,9.34
2023-04-30T06:54:42.867Z,9.55
2023-04-30T06:57:10.555Z,9.61
2023-04-30T06:59:39.349Z,9.61
2023-04-30T07:02:07.602Z,9.52
2023-04-30T07:04:35.358Z,9.53
2023-04-30T07:07:03.084Z,9.58
2023-04-30T07:09:30.939Z,9.57
2023-04-30T07:11:59.949Z,9.53
2023-04-30T07:14:27.561Z,9.57
2023-04-30T07:16:55.185Z,9.54
2023-04-30T07:19:23.569Z,9.63
2023-04-30T07:21:51.142Z,9.84
2023-04-30T07:24:18.827Z,9.81
2023-04-30T07:26:46.457Z,9.91
2023-04-30T07:29:15.513Z,10.14
2023-04-30T07:31:43.305Z,10.29
2023-04-30T07:34:10.970Z,10.30
2023-04-30T07:36:39.286Z,10.45
2023-04-30T07:39:07.958Z,10.25
2023-04-30T07:41:35.783Z,10.11
2023-04-30T07:44:03.442Z,10.16
2023-04-30T07:46:32.501Z,10.29
2023-04-30T07:49:00.209Z,10.39
2023-04-30T07:51:27.974Z,10.22
2023-04-30T07:53:55.550Z,10.21
2023-04-30T07:56:23.216Z,10.26
2023-04-30T07:58:50.859Z,10.17
2023-04-30T08:01:18.777Z,10.10
2023-04-30T08:03:47.762Z,10.28
2023-04-30T08:06:15.446Z,10.23
2023-04-30T08:08:43.027Z,10.31
2023-04-30T08:11:10.617Z,10.55
2023-04-30T08:13:38.253Z,10.63
2023-04-30T08:16:06.398Z,10.64
2023-04-30T08:18:34.050Z,10.65
2023-04-30T08:21:02.975Z,10.74
2023-04-30T08:23:30.559Z,10.81
2023-04-30T08:25:58.382Z,10.89
2023-04-30T08:28:26.057Z,10.95
2023-04-30T08:30:53.645Z,11.11
2023-04-30T08:33:21.360Z,11.05
2023-04-30T08:35:49.014Z,11.12
2023-04-30T08:38:18.326Z,11.23
2023-04-30T08:40:53.580Z,11.09
2023-04-30T08:43:21.452Z,11.08
2023-04-30T08:45:51.957Z,11.09
2023-04-30T08:48:22.197Z,11.04
2023-04-30T08:50:50.103Z,11.05
2023-04-30T08:53:21.467Z,11.06
2023-04-30T08:55:53.663Z,11.07
2023-04-30T08:58:21.259Z,11.12
2023-04-30T09:00:48.884Z,11.21
2023-04-30T09:03:17.012Z,11.09
2023-04-30T09:05:45.508Z,11.03
2023-04-30T09:08:42.011Z,11.05
2023-04-30T09:11:22.870Z,11.06
2023-04-30T09:13:52.611Z,11.07
2023-04-30T09:16:25.376Z,11.08
2023-04-30T09:18:53.204Z,11.13
2023-04-30T09:21:33.053Z,10.98
2023-04-30T09:24:03.106Z,10.98
2023-04-30T09:26:34.228Z,11.14
2023-04-30T09:29:08.303Z,11.13
2023-04-30T09:31:36.915Z,11.21
2023-04-30T09:34:06.032Z,11.27
2023-04-30T09:36:35.104Z,11.39
2023-04-30T09:39:14.840Z,11.35
2023-04-30T09:41:43.810Z,11.50
2023-04-30T09:44:29.475Z,11.39
2023-04-30T09:46:58.453Z,11.27
2023-04-30T09:49:27.180Z,11.27
2023-04-30T09:51:55.596Z,11.23
2023-04-30T09:54:27.395Z,11.32
2023-04-30T09:56:56.468Z,11.48
2023-04-30T09:59:30.653Z,11.53
2023-04-30T10:02:01.673Z,11.63
2023-04-30T10:04:33.252Z,11.69
2023-04-30T10:07:04.803Z,11.78
2023-04-30T10:09:44.568Z,11.84
2023-04-30T10:12:16.131Z,11.87
2023-04-30T10:14:52.830Z,12.00
2023-04-30T10:17:24.732Z,12.04
2023-04-30T10:19:56.539Z,12.02
2023-04-30T10:22:25.013Z,11.90
2023-04-30T10:24:54.722Z,11.78
2023-04-30T10:27:22.436Z,11.67
2023-04-30T10:29:51.259Z,11.58
2023-04-30T10:32:21.419Z,11.59
2023-04-30T10:34:55.487Z,11.65
2023-04-30T10:37:32.063Z,11.68
2023-04-30T10:40:02.055Z,11.66
2023-04-30T10:42:29.812Z,11.65
2023-04-30T10:44:57.995Z,11.73
2023-04-30T10:47:30.361Z,11.77
2023-04-30T10:50:03.625Z,11.76
2023-04-30T10:52:31.436Z,11.69
2023-04-30T10:54:59.009Z,11.66
2023-04-30T10:57:30.652Z,11.67
2023-04-30T11:00:19.975Z,11.67
2023-04-30T11:02:49.934Z,11.73
2023-04-30T11:05:19.587Z,11.73
2023-04-30T11:07:52.094Z,11.71
2023-04-30T11:10:25.653Z,11.71
2023-04-30T11:12:56.181Z,11.79
2023-04-30T11:15:27.735Z,11.90
2023-04-30T11:17:58.369Z,11.98
2023-04-30T11:20:27.037Z,12.05
2023-04-30T11:23:10.204Z,12.14
2023-04-30T11:25:44.499Z,12.21
2023-04-30T11:28:17.800Z,12.29
2023-04-30T11:30:56.521Z,12.39
2023-04-30T11:33:32.450Z,12.46
2023-04-30T11:36:03.955Z,12.56
2023-04-30T11:38:36.551Z,12.65
2023-04-30T11:41:05.680Z,12.71
2023-04-30T11:43:36.187Z,12.87
2023-04-30T11:46:08.844Z,13.03
2023-04-30T11:48:38.372Z,13.23
2023-04-30T11:51:15.939Z,13.32
2023-04-30T11:53:48.531Z,13.50
2023-04-30T11:56:21.204Z,13.64
2023-04-30T11:58:52.946Z,13.76
2023-04-30T12:01:21.569Z,13.91
2023-04-30T12:03:51.297Z,14.02
2023-04-30T12:06:23.568Z,14.23
2023-04-30T12:08:53.484Z,14.35
2023-04-30T12:11:25.234Z,14.49
2023-04-30T12:13:56.523Z,14.63
2023-04-30T12:16:25.768Z,14.77
2023-04-30T12:18:53.484Z,14.90
2023-04-30T12:21:22.708Z,14.98
2023-04-30T12:23:50.555Z,15.23
2023-04-30T12:26:18.790Z,15.33
2023-04-30T12:28:48.327Z,15.56
2023-04-30T12:31:18.483Z,15.70
2023-04-30T12:33:54.760Z,15.76
2023-04-30T12:36:26.228Z,15.78
2023-04-30T12:39:03.092Z,15.89
2023-04-30T12:41:30.862Z,15.97
2023-04-30T12:44:22.295Z,16.10
2023-04-30T12:46:56.013Z,16.05
2023-04-30T12:49:25.916Z,16.03
2023-04-30T12:52:00.868Z,16.02
2023-04-30T12:54:33.165Z,15.92
2023-04-30T12:57:03.171Z,16.11
2023-04-30T12:59:31.868Z,16.21
2023-04-30T13:02:14.614Z,16.36
2023-04-30T13:04:43.509Z,16.53
2023-04-30T13:07:11.874Z,16.60
2023-04-30T13:09:40.154Z,16.71
2023-04-30T13:12:08.496Z,16.79
2023-04-30T13:14:36.380Z,16.92
2023-04-30T13:17:05.832Z,17.09
2023-04-30T13:19:36.398Z,17.15
2023-04-30T13:22:04.458Z,17.18
2023-04-30T13:24:32.085Z,17.22
2023-04-30T13:27:00.183Z,17.36
2023-04-30T13:29:27.824Z,17.49
2023-04-30T13:31:55.640Z,17.47
2023-04-30T13:34:23.536Z,17.43
2023-04-30T13:36:53.416Z,17.41
2023-04-30T13:39:22.059Z,17.38
2023-04-30T13:41:49.786Z,17.32
2023-04-30T13:44:17.959Z,17.49
2023-04-30T13:46:46.365Z,17.70
2023-04-30T13:49:15.863Z,17.79
2023-04-30T13:51:44.408Z,17.77
2023-04-30T13:54:13.494Z,17.94
2023-04-30T13:56:41.186Z,18.06
2023-04-30T13:59:09.578Z,18.09
2023-04-30T14:01:37.133Z,18.09
2023-04-30T14:04:05.359Z,18.29
2023-04-30T14:06:33.116Z,18.35
2023-04-30T14:09:00.968Z,18.30
2023-04-30T14:11:29.921Z,18.45
2023-04-30T14:13:57.490Z,18.51
2023-04-30T14:16:26.370Z,18.44
2023-04-30T14:18:54.011Z,18.60
2023-04-30T14:21:21.571Z,18.59
2023-04-30T14:23:49.197Z,18.67
2023-04-30T14:26:16.877Z,18.88
2023-04-30T14:28:45.810Z,19.03
2023-04-30T14:31:13.504Z,19.17
2023-04-30T14:33:41.193Z,19.24
2023-04-30T14:36:09.344Z,19.18
2023-04-30T14:38:36.964Z,19.19
2023-04-30T14:41:06.775Z,19.07
2023-04-30T14:43:34.591Z,19.27
2023-04-30T14:46:03.935Z,19.12
2023-04-30T14:48:32.935Z,19.32
2023-04-30T14:51:01.743Z,19.31
2023-04-30T14:53:30.635Z,19.40
2023-04-30T14:56:00.877Z,19.33
2023-04-30T14:58:28.724Z,19.27
2023-04-30T15:03:25.417Z,18.57
2023-04-30T15:05:59.184Z,18.30
2023-04-30T15:08:26.995Z,18.11
2023-04-30T15:10:54.978Z,17.82
2023-04-30T15:13:22.538Z,17.45
2023-04-30T15:15:50.253Z,17.19
2023-04-30T15:18:17.911Z,16.98
2023-04-30T15:20:47.118Z,16.94
2023-04-30T15:23:14.681Z,16.76
2023-04-30T15:25:43.984Z,16.62
2023-04-30T15:28:11.578Z,16.53
2023-04-30T15:30:39.236Z,16.38
2023-04-30T15:33:06.805Z,16.28
2023-04-30T15:35:34.466Z,16.25
2023-04-30T15:38:03.564Z,16.24
2023-04-30T15:40:31.109Z,16.29
2023-04-30T15:42:58.754Z,16.29
2023-04-30T15:45:27.506Z,16.18
2023-04-30T15:47:55.414Z,16.20
2023-04-30T15:50:23.142Z,16.19
2023-04-30T15:52:50.673Z,16.19
2023-04-30T15:55:19.758Z,16.06
2023-04-30T15:57:47.372Z,15.83
2023-04-30T16:00:16.079Z,15.95
2023-04-30T16:02:43.836Z,16.05
2023-04-30T16:05:11.861Z,16.07
2023-04-30T16:07:40.770Z,16.07
2023-04-30T16:10:10.915Z,16.02
2023-04-30T16:12:40.078Z,15.92
2023-04-30T16:15:09.434Z,15.94
2023-04-30T16:17:37.528Z,15.94
2023-04-30T16:20:06.815Z,15.79
2023-04-30T16:22:36.140Z,15.81
2023-04-30T16:25:03.999Z,15.71
2023-04-30T16:27:32.262Z,15.61
2023-04-30T16:30:01.307Z,15.53
2023-04-30T16:32:29.024Z,15.41
2023-04-30T16:34:57.239Z,15.46
2023-04-30T16:37:25.840Z,15.45
2023-04-30T16:39:53.635Z,15.48
2023-04-30T16:42:21.482Z,15.47
2023-04-30T16:44:49.052Z,15.48
2023-04-30T16:47:20.826Z,15.40
2023-04-30T16:49:48.618Z,15.32
2023-04-30T16:52:16.248Z,15.25
2023-04-30T16:54:44.155Z,15.28
2023-04-30T16:57:11.838Z,15.32
2023-04-30T16:59:39.427Z,15.32
2023-04-30T17:02:08.056Z,15.35
2023-04-30T17:04:37.077Z,15.36
2023-04-30T17:07:04.942Z,15.41
2023-04-30T17:09:32.574Z,15.37
2023-04-30T17:12:00.182Z,15.40
2023-04-30T17:14:28.486Z,15.36
2023-04-30T17:16:56.253Z,15.30
2023-04-30T17:19:24.278Z,15.29
2023-04-30T17:21:53.167Z,15.28
2023-04-30T17:24:20.786Z,15.25
2023-04-30T17:26:48.595Z,15.25
2023-04-30T17:29:16.496Z,15.22
2023-04-30T17:31:44.244Z,15.17
2023-04-30T17:34:12.423Z,15.13
2023-04-30T17:36:40.003Z,15.11
2023-04-30T17:39:09.159Z,15.11
2023-04-30T17:41:36.764Z,15.08
2023-04-30T17:44:04.630Z,15.08
2023-04-30T17:46:32.229Z,15.10
2023-04-30T17:49:01.627Z,15.00
2023-04-30T17:51:31.482Z,15.03
2023-04-30T17:53:59.539Z,15.00
2023-04-30T17:56:30.124Z,14.96
2023-04-30T17:58:58.048Z,14.95
2023-04-30T18:01:25.957Z,14.90
2023-04-30T18:03:54.222Z,14.92
2023-04-30T18:06:22.115Z,14.92
2023-04-30T18:08:49.761Z,14.91
2023-04-30T18:11:17.328Z,14.87
2023-04-30T18:13:46.404Z,14.86
2023-04-30T18:16:14.335Z,14.83
2023-04-30T18:18:42.104Z,14.80
2023-04-30T18:21:09.840Z,14.75
2023-04-30T18:23:37.535Z,14.76
2023-04-30T18:26:06.084Z,14.77
2023-04-30T18:28:33.957Z,14.73
2023-04-30T18:31:03.268Z,14.68
2023-04-30T18:33:30.916Z,14.64
2023-04-30T18:36:05.286Z,14.63
2023-04-30T18:38:33.479Z,14.54
2023-04-30T18:41:01.780Z,14.48
2023-04-30T18:43:29.627Z,14.45
2023-04-30T18:45:57.662Z,14.45
2023-04-30T18:48:26.812Z,14.44
2023-04-30T18:50:54.477Z,14.41
2023-04-30T18:53:22.167Z,14.37
2023-04-30T18:55:49.794Z,14.38
2023-04-30T18:58:17.637Z,14.36
2023-04-30T19:00:45.447Z,14.34
2023-04-30T19:03:13.289Z,14.30
2023-04-30T19:05:42.859Z,14.27
2023-04-30T19:08:10.428Z,14.28
2023-04-30T19:10:38.157Z,14.28
2023-04-30T19:13:07.594Z,14.28
2023-04-30T19:15:35.606Z,14.27
2023-04-30T19:18:03.477Z,14.24
2023-04-30T19:20:31.232Z,14.21
2023-04-30T19:23:00.334Z,14.24
2023-04-30T19:25:28.077Z,14.25
2023-04-30T19:27:55.744Z,14.21
2023-04-30T19:30:23.553Z,14.13
2023-04-30T19:32:51.370Z,14.11
2023-04-30T19:35:19.393Z,14.11
2023-04-30T19:37:47.051Z,14.06
2023-04-30T19:40:18.265Z,14.03
2023-04-30T19:42:47.536Z,13.98
2023-04-30T19:45:15.532Z,13.96
2023-04-30T19:47:43.222Z,13.96
2023-04-30T19:50:11.395Z,13.92
2023-04-30T19:52:39.846Z,13.91
2023-04-30T19:55:08.177Z,13.94
2023-04-30T19:57:37.261Z,13.92
2023-04-30T20:00:06.292Z,13.87
2023-04-30T20:02:34.266Z,13.80
2023-04-30T20:05:02.017Z,13.82
2023-04-30T20:07:29.629Z,13.76
2023-04-30T20:09:57.500Z,13.78
2023-04-30T20:12:25.291Z,13.71
2023-04-30T20:14:54.321Z,13.66
2023-04-30T20:17:21.927Z,13.60
2023-04-30T20:19:49.709Z,13.59
2023-04-30T20:22:17.612Z,13.57
2023-04-30T20:24:46.737Z,13.56
2023-04-30T20:27:14.540Z,13.53
2023-04-30T20:29:42.656Z,13.40
2023-04-30T20:32:11.668Z,13.41
2023-04-30T20:34:39.371Z,13.42
2023-04-30T20:37:07.154Z,13.39
2023-04-30T20:39:34.943Z,13.39
2023-04-30T20:42:03.808Z,13.39
2023-04-30T20:44:31.500Z,13.41
2023-04-30T20:46:59.107Z,13.45
2023-04-30T20:49:28.509Z,13.43
2023-04-30T20:51:56.107Z,13.52
2023-04-30T20:54:23.731Z,13.57
2023-04-30T20:56:52.147Z,13.58
2023-04-30T20:59:20.046Z,13.55
2023-04-30T21:01:48.769Z,13.48
2023-04-30T21:04:16.500Z,13.28
2023-04-30T21:06:45.712Z,13.18
2023-04-30T21:09:13.521Z,13.12
2023-04-30T21:11:41.902Z,13.05
2023-04-30T21:14:09.554Z,12.95
2023-04-30T21:16:37.259Z,12.95
2023-04-30T21:19:04.857Z,12.95
2023-04-30T21:21:36.994Z,12.92
2023-04-30T21:24:09.065Z,12.86
2023-04-30T21:26:37.089Z,12.83
2023-04-30T21:29:04.756Z,12.76
2023-04-30T21:31:32.605Z,12.71
2023-04-30T21:34:00.529Z,12.74
2023-04-30T21:36:29.804Z,12.73
2023-04-30T21:38:58.199Z,12.63
2023-04-30T21:41:30.267Z,12.59
2023-04-30T21:43:58.276Z,12.59
2023-04-30T21:46:26.057Z,12.56
2023-04-30T21:48:53.744Z,12.52
2023-04-30T21:51:22.226Z,12.44
2023-04-30T21:53:49.943Z,12.41
2023-04-30T21:56:19.110Z,12.42
2023-04-30T21:58:49.537Z,12.40
2023-04-30T22:01:18.121Z,12.33
2023-04-30T22:03:45.891Z,12.32
2023-04-30T22:06:13.775Z,12.19
2023-04-30T22:08:41.566Z,12.18
2023-04-30T22:11:09.172Z,12.22
2023-04-30T22:13:37.017Z,12.14
2023-04-30T22:16:06.960Z,12.13
2023-04-30T22:18:35.420Z,12.12
2023-04-30T22:21:02.985Z,12.11
2023-04-30T22:23:30.823Z,12.06
2023-04-30T22:25:58.405Z,11.99
2023-04-30T22:28:26.022Z,11.99
2023-04-30T22:30:58.667Z,11.96
2023-04-30T22:33:27.869Z,11.93
2023-04-30T22:35:56.063Z,11.92
2023-04-30T22:38:23.646Z,11.90
2023-04-30T22:40:51.434Z,11.86
2023-04-30T22:43:19.280Z,11.86
2023-04-30T22:45:47.044Z,11.83
2023-04-30T22:48:15.804Z,11.83
2023-04-30T22:50:44.998Z,11.69
2023-04-30T22:53:13.280Z,11.60
2023-04-30T22:55:41.222Z,11.63
2023-04-30T22:58:08.801Z,11.51
2023-04-30T23:00:36.496Z,11.54
2023-04-30T23:03:04.282Z,11.53
2023-04-30T23:05:31.862Z,11.50
2023-04-30T23:08:01.091Z,11.42
2023-04-30T23:10:28.845Z,11.43
2023-04-30T23:12:58.554Z,11.43
2023-04-30T23:15:26.387Z,11.44
2023-04-30T23:17:55.743Z,11.41
2023-04-30T23:20:23.445Z,11.34
2023-04-30T23:22:51.649Z,11.40
2023-04-30T23:25:20.581Z,11.43
2023-04-30T23:27:48.266Z,11.32
2023-04-30T23:30:16.179Z,11.31
2023-04-30T23:32:43.737Z,11.27
2023-04-30T23:35:11.335Z,11.26
2023-04-30T23:37:39.253Z,11.24
2023-04-30T23:40:09.588Z,11.13
2023-04-30T23:42:38.508Z,11.15
2023-04-30T23:45:07.135Z,11.08
2023-04-30T23:47:36.157Z,11.02
2023-04-30T23:50:04.215Z,11.02
2023-04-30T23:52:31.938Z,11.08
2023-04-30T23:54:59.629Z,11.02
2023-04-30T23:57:28.129Z,11.04
2023-04-30T23:59:57.994Z,11.01
